createdAt,value
2019-03-09T00:02:58.234Z,9.95
2019-03-09T00:08:01.134Z,9.98
2019-03-09T00:13:03.940Z,10.04
2019-03-09T00:18:06.689Z,10.14
2019-03-09T00:23:26.880Z,10.27
2019-03-09T00:28:32.418Z,10.25
2019-03-09T00:33:35.274Z,10.29
2019-03-09T00:38:38.019Z,10.33
2019-03-09T00:43:40.839Z,10.38
2019-03-09T00:48:43.628Z,10.42
2019-03-09T00:53:46.391Z,10.51
2019-03-09T00:58:49.434Z,10.47
2019-03-09T01:03:52.333Z,10.44
2019-03-09T01:08:55.403Z,10.54
2019-03-09T01:13:58.431Z,10.50
2019-03-09T01:19:01.536Z,10.56
2019-03-09T01:24:04.597Z,10.46
2019-03-09T01:29:07.435Z,10.44
2019-03-09T01:34:10.152Z,10.32
2019-03-09T01:39:12.852Z,10.35
2019-03-09T01:44:15.558Z,10.33
2019-03-09T01:49:18.256Z,10.29
2019-03-09T01:54:21.140Z,10.32
2019-03-09T01:59:23.891Z,10.28
2019-03-09T02:04:26.653Z,10.28
2019-03-09T02:09:29.419Z,10.27
2019-03-09T02:14:32.130Z,10.28
2019-03-09T02:19:34.881Z,10.06
2019-03-09T02:24:37.710Z,10.18
2019-03-09T02:29:40.453Z,10.22
2019-03-09T02:34:43.254Z,10.22
2019-03-09T02:39:51.700Z,10.19
2019-03-09T02:44:54.568Z,10.10
2019-03-09T02:49:57.461Z,10.05
2019-03-09T02:55:00.532Z,10.09
2019-03-09T03:00:07.086Z,10.09
2019-03-09T03:05:10.154Z,10.05
2019-03-09T03:10:13.058Z,10.06
2019-03-09T03:15:31.590Z,9.93
2019-03-09T03:20:34.336Z,9.86
2019-03-09T03:25:37.071Z,9.80
2019-03-09T03:30:39.849Z,9.72
2019-03-09T03:35:42.695Z,9.74
2019-03-09T03:40:45.470Z,9.63
2019-03-09T03:45:48.249Z,9.79
2019-03-09T03:50:51.014Z,9.86
2019-03-09T03:55:53.822Z,9.78
2019-03-09T04:00:56.500Z,9.79
2019-03-09T04:05:59.202Z,9.80
2019-03-09T04:11:02.007Z,9.87
2019-03-09T04:16:04.722Z,9.85
2019-03-09T04:21:07.547Z,9.96
2019-03-09T04:26:11.403Z,9.92
2019-03-09T04:31:14.126Z,9.84
2019-03-09T04:36:16.840Z,9.95
2019-03-09T04:41:19.550Z,9.94
2019-03-09T04:46:22.318Z,9.97
2019-03-09T04:51:25.025Z,10.05
2019-03-09T04:56:27.807Z,10.02
2019-03-09T05:01:31.491Z,10.14
2019-03-09T05:06:34.290Z,10.16
2019-03-09T05:11:36.997Z,10.18
2019-03-09T05:16:39.749Z,10.29
2019-03-09T05:21:42.484Z,10.29
2019-03-09T05:26:45.254Z,10.28
2019-03-09T05:31:48.049Z,10.13
2019-03-09T05:36:50.818Z,10.16
2019-03-09T05:41:53.525Z,10.07
2019-03-09T05:46:57.263Z,10.02
2019-03-09T05:52:31.829Z,10.02
2019-03-09T05:57:34.678Z,10.03
2019-03-09T06:02:37.401Z,9.83
2019-03-09T06:07:40.113Z,9.87
2019-03-09T06:12:42.836Z,9.89
2019-03-09T06:17:45.542Z,10.03
2019-03-09T06:22:48.223Z,10.12
2019-03-09T06:27:50.939Z,10.05
2019-03-09T06:33:20.403Z,9.99
2019-03-09T06:38:54.239Z,9.94
2019-03-09T06:43:56.932Z,10.02
2019-03-09T06:48:59.675Z,10.03
2019-03-09T06:54:02.403Z,10.14
2019-03-09T06:59:05.315Z,10.29
2019-03-09T07:04:08.222Z,10.37
2019-03-09T07:09:10.912Z,10.58
2019-03-09T07:15:19.369Z,10.53
2019-03-09T07:20:22.330Z,10.61
2019-03-09T07:25:25.095Z,10.62
2019-03-09T07:30:27.987Z,10.73
2019-03-09T07:35:30.722Z,10.66
2019-03-09T07:40:33.440Z,10.76
2019-03-09T07:45:36.977Z,10.90
2019-03-09T07:50:39.685Z,11.06
2019-03-09T07:55:42.399Z,11.12
2019-03-09T08:00:50.670Z,11.22
2019-03-09T08:05:53.379Z,11.55
2019-03-09T08:10:56.086Z,11.51
2019-03-09T08:15:58.782Z,11.71
2019-03-09T08:21:01.497Z,11.86
2019-03-09T08:26:04.211Z,12.02
2019-03-09T08:31:06.909Z,12.21
2019-03-09T08:36:09.633Z,12.23
2019-03-09T08:41:12.431Z,12.17
2019-03-09T08:46:15.126Z,12.39
2019-03-09T08:51:17.863Z,12.55
2019-03-09T08:56:20.559Z,12.75
2019-03-09T09:01:23.257Z,12.89
2019-03-09T09:06:25.937Z,12.80
2019-03-09T09:11:28.635Z,12.70
2019-03-09T09:16:31.337Z,12.68
2019-03-09T09:21:34.050Z,12.60
2019-03-09T09:26:36.742Z,12.86
2019-03-09T09:31:39.446Z,12.99
2019-03-09T09:36:42.205Z,13.47
2019-03-09T09:41:44.903Z,13.43
2019-03-09T09:46:47.612Z,13.48
2019-03-09T09:51:50.319Z,13.58
2019-03-09T09:56:53.027Z,13.40
2019-03-09T10:01:55.725Z,13.37
2019-03-09T10:06:58.442Z,13.14
2019-03-09T10:12:01.145Z,13.17
2019-03-09T10:17:03.885Z,13.56
2019-03-09T10:22:06.672Z,13.71
2019-03-09T10:27:09.388Z,13.93
2019-03-09T10:32:12.094Z,14.04
2019-03-09T10:37:14.789Z,13.86
2019-03-09T10:42:17.542Z,13.86
2019-03-09T10:47:20.243Z,13.75
2019-03-09T10:52:22.950Z,13.86
2019-03-09T10:57:25.670Z,14.09
2019-03-09T11:02:28.365Z,14.43
2019-03-09T11:07:31.074Z,14.64
2019-03-09T11:12:33.778Z,14.46
2019-03-09T11:17:36.516Z,14.64
2019-03-09T11:22:39.240Z,14.64
2019-03-09T11:27:41.955Z,14.87
2019-03-09T11:32:44.656Z,14.83
2019-03-09T11:37:47.777Z,14.82
2019-03-09T11:42:50.502Z,14.75
2019-03-09T11:47:53.308Z,14.84
2019-03-09T11:52:56.023Z,14.88
2019-03-09T11:58:00.374Z,14.65
2019-03-09T12:03:03.067Z,15.02
2019-03-09T12:08:05.774Z,14.90
2019-03-09T12:13:08.487Z,14.93
2019-03-09T12:18:11.185Z,14.92
2019-03-09T12:23:24.863Z,15.24
2019-03-09T12:28:27.569Z,15.26
2019-03-09T12:33:30.260Z,15.47
2019-03-09T12:38:32.965Z,15.77
2019-03-09T12:43:35.702Z,15.58
2019-03-09T12:48:38.510Z,15.07
2019-03-09T12:53:41.213Z,15.07
2019-03-09T12:58:46.164Z,14.89
2019-03-09T13:03:48.644Z,14.25
2019-03-09T13:08:51.381Z,14.48
2019-03-09T13:13:54.135Z,14.49
2019-03-09T13:18:56.840Z,14.37
2019-03-09T13:23:59.536Z,14.10
2019-03-09T13:29:02.273Z,13.97
2019-03-09T13:34:04.990Z,13.27
2019-03-09T13:39:07.961Z,13.03
2019-03-09T13:44:10.644Z,13.34
2019-03-09T13:49:13.336Z,13.07
2019-03-09T13:54:16.081Z,13.14
2019-03-09T13:59:18.793Z,13.13
2019-03-09T14:04:21.511Z,12.88
2019-03-09T14:09:24.232Z,12.44
2019-03-09T14:14:27.022Z,12.65
2019-03-09T14:19:29.731Z,12.78
2019-03-09T14:24:32.446Z,12.98
2019-03-09T14:29:35.183Z,13.02
2019-03-09T14:34:37.908Z,12.88
2019-03-09T14:39:40.734Z,12.80
2019-03-09T14:44:43.557Z,12.39
2019-03-09T14:49:46.291Z,11.91
2019-03-09T14:54:48.980Z,11.83
2019-03-09T14:59:51.681Z,11.08
2019-03-09T15:04:54.384Z,10.78
2019-03-09T15:09:57.079Z,10.82
2019-03-09T15:14:59.814Z,10.61
2019-03-09T15:20:02.633Z,10.56
2019-03-09T15:25:07.040Z,10.61
2019-03-09T15:30:12.204Z,10.55
2019-03-09T15:35:15.246Z,10.97
2019-03-09T15:40:18.112Z,10.96
2019-03-09T15:45:20.809Z,10.73
2019-03-09T15:50:23.515Z,10.66
2019-03-09T15:55:26.231Z,10.70
2019-03-09T16:00:28.970Z,10.64
2019-03-09T16:05:31.681Z,10.62
2019-03-09T16:10:34.408Z,10.62
2019-03-09T16:15:37.097Z,10.37
2019-03-09T16:20:39.785Z,10.02
2019-03-09T16:25:42.495Z,10.01
2019-03-09T16:30:45.212Z,10.07
2019-03-09T16:35:47.968Z,10.14
2019-03-09T16:40:50.687Z,10.08
2019-03-09T16:45:53.422Z,10.01
2019-03-09T16:50:56.166Z,10.12
2019-03-09T16:55:58.896Z,10.22
2019-03-09T17:01:01.605Z,10.17
2019-03-09T17:06:04.292Z,10.06
2019-03-09T17:11:07.001Z,10.08
2019-03-09T17:16:09.752Z,10.15
2019-03-09T17:21:13.881Z,10.10
2019-03-09T17:26:16.675Z,10.09
2019-03-09T17:31:19.389Z,10.18
2019-03-09T17:36:22.092Z,10.23
2019-03-09T17:41:24.834Z,10.23
2019-03-09T17:46:27.561Z,10.25
2019-03-09T17:51:30.276Z,10.16
2019-03-09T17:56:32.995Z,10.07
2019-03-09T18:01:35.714Z,10.00
2019-03-09T18:06:38.467Z,10.16
2019-03-09T18:11:41.228Z,10.02
2019-03-09T18:16:52.535Z,9.90
2019-03-09T18:21:48.562Z,9.53
2019-03-09T18:26:51.248Z,9.35
2019-03-09T18:31:53.961Z,9.28
2019-03-09T18:36:56.689Z,9.23
2019-03-09T18:41:59.425Z,9.09
2019-03-09T18:47:02.146Z,8.99
2019-03-09T18:52:04.884Z,8.86
2019-03-09T18:57:07.585Z,8.84
2019-03-09T19:02:10.286Z,8.68
2019-03-09T19:07:13.014Z,8.64
2019-03-09T19:12:15.743Z,8.67
2019-03-09T19:17:18.448Z,8.65
2019-03-09T19:22:21.175Z,8.60
2019-03-09T19:27:23.896Z,8.61
2019-03-09T19:32:26.642Z,8.38
2019-03-09T19:37:29.363Z,8.48
2019-03-09T19:42:32.322Z,8.45
2019-03-09T19:47:35.082Z,8.34
2019-03-09T19:52:37.982Z,8.38
2019-03-09T19:57:40.709Z,8.25
2019-03-09T20:02:43.516Z,8.13
2019-03-09T20:07:46.231Z,8.13
2019-03-09T20:12:48.937Z,8.12
2019-03-09T20:17:51.668Z,8.12
2019-03-09T20:22:54.386Z,8.15
2019-03-09T20:27:57.085Z,8.12
2019-03-09T20:32:59.871Z,8.14
2019-03-09T20:38:02.991Z,8.09
2019-03-09T20:43:06.444Z,8.04
2019-03-09T20:48:11.118Z,8.12
2019-03-09T20:53:15.622Z,8.03
2019-03-09T20:58:21.254Z,8.16
2019-03-09T21:03:25.296Z,8.12
2019-03-09T21:08:29.780Z,8.01
2019-03-09T21:13:33.690Z,7.97
2019-03-09T21:18:36.743Z,7.94
2019-03-09T21:23:39.478Z,7.82
2019-03-09T21:28:42.251Z,7.83
2019-03-09T21:33:45.062Z,7.79
2019-03-09T21:38:47.894Z,7.67
2019-03-09T21:43:50.826Z,7.70
2019-03-09T21:48:53.653Z,7.72
2019-03-09T21:53:56.598Z,7.69
2019-03-09T21:58:59.396Z,7.66
2019-03-09T22:04:02.263Z,7.69
2019-03-09T22:09:06.014Z,7.69
2019-03-09T22:14:08.736Z,7.81
2019-03-09T22:19:11.449Z,7.82
2019-03-09T22:24:14.265Z,7.73
2019-03-09T22:29:17.031Z,7.69
2019-03-09T22:34:19.786Z,7.74
2019-03-09T22:39:22.557Z,7.81
2019-03-09T22:44:25.307Z,7.81
2019-03-09T22:49:28.019Z,7.79
2019-03-09T22:54:30.752Z,7.88
2019-03-09T22:59:33.469Z,7.90
2019-03-09T23:04:36.190Z,7.88
2019-03-09T23:09:38.989Z,7.90
2019-03-09T23:14:41.849Z,7.99
2019-03-09T23:19:44.648Z,7.99
2019-03-09T23:24:47.377Z,8.09
2019-03-09T23:29:50.118Z,8.25
2019-03-09T23:34:52.840Z,8.35
2019-03-09T23:39:55.542Z,8.42
2019-03-09T23:44:58.270Z,8.45
2019-03-09T23:50:01.006Z,8.50
2019-03-09T23:55:04.139Z,8.52
